sensor_id;sensor_type;location;lat;lon;timestamp;temperature;humidity
7290;DHT22;63176;52.678;13.250;2022-11-15T00:00:24;5.60;99.90
7290;DHT22;63176;52.678;13.250;2022-11-15T00:02:51;5.90;99.90
7290;DHT22;63176;52.678;13.250;2022-11-15T00:05:17;5.70;99.90
7290;DHT22;63176;52.678;13.250;2022-11-15T00:07:42;5.60;99.90
7290;DHT22;63176;52.678;13.250;2022-11-15T00:10:08;5.70;99.90
7290;DHT22;63176;52.678;13.250;2022-11-15T00:12:34;5.80;99.90
7290;DHT22;63176;52.678;13.250;2022-11-15T00:14:59;5.90;99.90
7290;DHT22;63176;52.678;13.250;2022-11-15T00:17:25;5.90;99.90
7290;DHT22;63176;52.678;13.250;2022-11-15T00:19:51;5.80;99.90
7290;DHT22;63176;52.678;13.250;2022-11-15T00:22:18;5.60;99.90
7290;DHT22;63176;52.678;13.250;2022-11-15T00:24:43;5.60;99.90
7290;DHT22;63176;52.678;13.250;2022-11-15T00:27:09;5.60;99.90
7290;DHT22;63176;52.678;13.250;2022-11-15T00:29:34;5.40;99.90
7290;DHT22;63176;52.678;13.250;2022-11-15T00:32:02;5.60;99.90
7290;DHT22;63176;52.678;13.250;2022-11-15T00:34:28;5.60;99.90
7290;DHT22;63176;52.678;13.250;2022-11-15T00:36:53;5.80;99.90
7290;DHT22;63176;52.678;13.250;2022-11-15T00:39:19;5.80;99.90
7290;DHT22;63176;52.678;13.250;2022-11-15T00:41:45;5.60;99.90
7290;DHT22;63176;52.678;13.250;2022-11-15T00:44:10;5.70;99.90
7290;DHT22;63176;52.678;13.250;2022-11-15T00:46:36;5.50;99.90
7290;DHT22;63176;52.678;13.250;2022-11-15T00:49:01;5.40;99.90
7290;DHT22;63176;52.678;13.250;2022-11-15T00:51:27;5.50;99.90
7290;DHT22;63176;52.678;13.250;2022-11-15T00:53:53;5.50;99.90
7290;DHT22;63176;52.678;13.250;2022-11-15T00:56:18;5.50;99.90
7290;DHT22;63176;52.678;13.250;2022-11-15T00:58:44;5.50;99.90
7290;DHT22;63176;52.678;13.250;2022-11-15T01:01:12;5.50;99.90
7290;DHT22;63176;52.678;13.250;2022-11-15T01:03:39;5.40;99.90
7290;DHT22;63176;52.678;13.250;2022-11-15T01:06:06;5.40;99.90
7290;DHT22;63176;52.678;13.250;2022-11-15T01:08:32;5.40;99.90
7290;DHT22;63176;52.678;13.250;2022-11-15T01:11:06;5.60;99.90
7290;DHT22;63176;52.678;13.250;2022-11-15T01:13:33;5.60;99.90
7290;DHT22;63176;52.678;13.250;2022-11-15T01:16:06;5.30;99.90
7290;DHT22;63176;52.678;13.250;2022-11-15T01:18:32;5.20;99.90
7290;DHT22;63176;52.678;13.250;2022-11-15T01:20:57;5.30;99.90
7290;DHT22;63176;52.678;13.250;2022-11-15T01:23:23;5.10;99.90
7290;DHT22;63176;52.678;13.250;2022-11-15T01:25:49;5.20;99.90
7290;DHT22;63176;52.678;13.250;2022-11-15T01:28:14;5.10;99.90
7290;DHT22;63176;52.678;13.250;2022-11-15T01:30:40;5.00;99.90
7290;DHT22;63176;52.678;13.250;2022-11-15T01:33:06;5.00;99.90
7290;DHT22;63176;52.678;13.250;2022-11-15T01:35:31;5.30;99.90
7290;DHT22;63176;52.678;13.250;2022-11-15T01:37:57;5.00;99.90
7290;DHT22;63176;52.678;13.250;2022-11-15T01:40:23;5.00;99.90
7290;DHT22;63176;52.678;13.250;2022-11-15T01:42:48;5.00;99.90
7290;DHT22;63176;52.678;13.250;2022-11-15T01:45:15;4.90;99.90
7290;DHT22;63176;52.678;13.250;2022-11-15T01:47:45;4.90;99.90
7290;DHT22;63176;52.678;13.250;2022-11-15T01:50:17;4.90;99.90
7290;DHT22;63176;52.678;13.250;2022-11-15T01:52:44;5.00;99.90
7290;DHT22;63176;52.678;13.250;2022-11-15T01:55:22;5.10;99.90
7290;DHT22;63176;52.678;13.250;2022-11-15T01:57:51;4.90;99.90
7290;DHT22;63176;52.678;13.250;2022-11-15T02:00:18;5.10;99.90
7290;DHT22;63176;52.678;13.250;2022-11-15T02:02:44;4.90;99.90
7290;DHT22;63176;52.678;13.250;2022-11-15T02:05:10;4.90;99.90
7290;DHT22;63176;52.678;13.250;2022-11-15T02:07:36;4.80;99.90
7290;DHT22;63176;52.678;13.250;2022-11-15T02:10:10;4.90;99.90
7290;DHT22;63176;52.678;13.250;2022-11-15T02:12:36;4.90;99.90
7290;DHT22;63176;52.678;13.250;2022-11-15T02:15:02;5.00;99.90
7290;DHT22;63176;52.678;13.250;2022-11-15T02:18:10;5.00;99.90
7290;DHT22;63176;52.678;13.250;2022-11-15T02:21:02;5.00;99.90
7290;DHT22;63176;52.678;13.250;2022-11-15T02:23:58;5.00;99.90
7290;DHT22;63176;52.678;13.250;2022-11-15T02:32:20;4.90;99.90
7290;DHT22;63176;52.678;13.250;2022-11-15T02:35:01;4.90;99.90
7290;DHT22;63176;52.678;13.250;2022-11-15T02:38:08;4.90;99.90
7290;DHT22;63176;52.678;13.250;2022-11-15T02:43:21;4.80;99.90
7290;DHT22;63176;52.678;13.250;2022-11-15T02:46:09;5.00;99.90
7290;DHT22;63176;52.678;13.250;2022-11-15T02:48:39;4.90;99.90
7290;DHT22;63176;52.678;13.250;2022-11-15T02:51:04;4.60;99.90
7290;DHT22;63176;52.678;13.250;2022-11-15T02:53:31;4.70;99.90
7290;DHT22;63176;52.678;13.250;2022-11-15T02:55:56;4.80;99.90
7290;DHT22;63176;52.678;13.250;2022-11-15T03:07:29;4.60;99.90
7290;DHT22;63176;52.678;13.250;2022-11-15T03:10:18;4.60;99.90
7290;DHT22;63176;52.678;13.250;2022-11-15T03:12:57;4.60;99.90
7290;DHT22;63176;52.678;13.250;2022-11-15T03:15:35;4.60;99.90
7290;DHT22;63176;52.678;13.250;2022-11-15T03:18:12;4.60;99.90
7290;DHT22;63176;52.678;13.250;2022-11-15T03:20:42;4.60;99.90
7290;DHT22;63176;52.678;13.250;2022-11-15T03:23:09;4.60;99.90
7290;DHT22;63176;52.678;13.250;2022-11-15T03:25:41;4.80;99.90
7290;DHT22;63176;52.678;13.250;2022-11-15T03:28:11;4.60;99.90
7290;DHT22;63176;52.678;13.250;2022-11-15T03:30:40;4.70;99.90
7290;DHT22;63176;52.678;13.250;2022-11-15T03:33:08;4.60;99.90
7290;DHT22;63176;52.678;13.250;2022-11-15T03:35:38;4.60;99.90
7290;DHT22;63176;52.678;13.250;2022-11-15T03:40:53;4.60;99.90
7290;DHT22;63176;52.678;13.250;2022-11-15T03:43:36;4.60;99.90
7290;DHT22;63176;52.678;13.250;2022-11-15T03:46:13;4.60;99.90
7290;DHT22;63176;52.678;13.250;2022-11-15T03:48:44;4.80;99.90
7290;DHT22;63176;52.678;13.250;2022-11-15T03:51:13;4.80;99.90
7290;DHT22;63176;52.678;13.250;2022-11-15T03:53:41;4.80;99.90
7290;DHT22;63176;52.678;13.250;2022-11-15T03:56:07;4.60;99.90
7290;DHT22;63176;52.678;13.250;2022-11-15T03:58:32;4.60;99.90
7290;DHT22;63176;52.678;13.250;2022-11-15T04:00:58;4.60;99.90
7290;DHT22;63176;52.678;13.250;2022-11-15T04:03:25;4.80;99.90
7290;DHT22;63176;52.678;13.250;2022-11-15T04:05:50;4.50;99.90
7290;DHT22;63176;52.678;13.250;2022-11-15T04:08:16;4.60;99.90
7290;DHT22;63176;52.678;13.250;2022-11-15T04:10:42;4.70;99.90
7290;DHT22;63176;52.678;13.250;2022-11-15T04:13:07;4.60;99.90
7290;DHT22;63176;52.678;13.250;2022-11-15T04:15:33;4.50;99.90
7290;DHT22;63176;52.678;13.250;2022-11-15T04:17:59;4.80;99.90
7290;DHT22;63176;52.678;13.250;2022-11-15T04:20:29;4.90;99.90
7290;DHT22;63176;52.678;13.250;2022-11-15T04:23:19;4.50;99.90
7290;DHT22;63176;52.678;13.250;2022-11-15T04:26:10;4.60;99.90
7290;DHT22;63176;52.678;13.250;2022-11-15T04:28:36;4.50;99.90
7290;DHT22;63176;52.678;13.250;2022-11-15T04:31:26;4.60;99.90
7290;DHT22;63176;52.678;13.250;2022-11-15T04:33:52;4.60;99.90
7290;DHT22;63176;52.678;13.250;2022-11-15T04:36:17;4.60;99.90
7290;DHT22;63176;52.678;13.250;2022-11-15T04:39:02;4.50;99.90
7290;DHT22;63176;52.678;13.250;2022-11-15T04:41:27;4.60;99.90
7290;DHT22;63176;52.678;13.250;2022-11-15T04:43:54;4.60;99.90
7290;DHT22;63176;52.678;13.250;2022-11-15T04:46:20;4.60;99.90
7290;DHT22;63176;52.678;13.250;2022-11-15T04:48:46;4.50;99.90
7290;DHT22;63176;52.678;13.250;2022-11-15T04:51:11;4.70;99.90
7290;DHT22;63176;52.678;13.250;2022-11-15T04:53:37;4.50;99.90
7290;DHT22;63176;52.678;13.250;2022-11-15T04:56:03;4.50;99.90
7290;DHT22;63176;52.678;13.250;2022-11-15T04:58:29;4.40;99.90
7290;DHT22;63176;52.678;13.250;2022-11-15T05:00:54;4.40;99.90
7290;DHT22;63176;52.678;13.250;2022-11-15T05:03:20;4.60;99.90
7290;DHT22;63176;52.678;13.250;2022-11-15T05:06:04;4.40;99.90
7290;DHT22;63176;52.678;13.250;2022-11-15T05:08:30;4.30;99.90
7290;DHT22;63176;52.678;13.250;2022-11-15T05:10:56;4.30;99.90
7290;DHT22;63176;52.678;13.250;2022-11-15T05:13:21;4.30;99.90
7290;DHT22;63176;52.678;13.250;2022-11-15T05:15:47;4.30;99.90
7290;DHT22;63176;52.678;13.250;2022-11-15T05:18:13;4.30;99.90
7290;DHT22;63176;52.678;13.250;2022-11-15T05:20:38;4.40;99.90
7290;DHT22;63176;52.678;13.250;2022-11-15T05:23:04;4.30;99.90
7290;DHT22;63176;52.678;13.250;2022-11-15T05:25:30;4.30;99.90
7290;DHT22;63176;52.678;13.250;2022-11-15T05:27:55;4.30;99.90
7290;DHT22;63176;52.678;13.250;2022-11-15T05:30:21;4.30;99.90
7290;DHT22;63176;52.678;13.250;2022-11-15T05:32:47;4.20;99.90
7290;DHT22;63176;52.678;13.250;2022-11-15T05:35:24;4.30;99.90
7290;DHT22;63176;52.678;13.250;2022-11-15T05:37:52;4.20;99.90
7290;DHT22;63176;52.678;13.250;2022-11-15T05:40:18;4.20;99.90
7290;DHT22;63176;52.678;13.250;2022-11-15T05:42:44;4.20;99.90
7290;DHT22;63176;52.678;13.250;2022-11-15T05:45:11;4.40;99.90
7290;DHT22;63176;52.678;13.250;2022-11-15T05:47:37;4.10;99.90
7290;DHT22;63176;52.678;13.250;2022-11-15T05:50:04;4.10;99.90
7290;DHT22;63176;52.678;13.250;2022-11-15T05:52:31;4.10;99.90
7290;DHT22;63176;52.678;13.250;2022-11-15T05:54:58;4.00;99.90
7290;DHT22;63176;52.678;13.250;2022-11-15T05:57:24;4.40;99.90
7290;DHT22;63176;52.678;13.250;2022-11-15T05:59:50;4.20;99.90
7290;DHT22;63176;52.678;13.250;2022-11-15T06:02:16;4.10;99.90
7290;DHT22;63176;52.678;13.250;2022-11-15T06:04:42;4.10;99.90
7290;DHT22;63176;52.678;13.250;2022-11-15T06:07:07;4.10;99.90
7290;DHT22;63176;52.678;13.250;2022-11-15T06:09:33;4.00;99.90
7290;DHT22;63176;52.678;13.250;2022-11-15T06:11:58;4.20;99.90
7290;DHT22;63176;52.678;13.250;2022-11-15T06:14:24;4.20;99.90
7290;DHT22;63176;52.678;13.250;2022-11-15T06:16:50;3.90;99.90
7290;DHT22;63176;52.678;13.250;2022-11-15T06:19:15;4.10;99.90
7290;DHT22;63176;52.678;13.250;2022-11-15T06:21:42;4.00;99.90
7290;DHT22;63176;52.678;13.250;2022-11-15T06:24:07;4.10;99.90
7290;DHT22;63176;52.678;13.250;2022-11-15T06:26:33;4.00;99.90
7290;DHT22;63176;52.678;13.250;2022-11-15T06:28:59;4.00;99.90
7290;DHT22;63176;52.678;13.250;2022-11-15T06:31:24;4.00;99.90
7290;DHT22;63176;52.678;13.250;2022-11-15T06:33:50;4.00;99.90
7290;DHT22;63176;52.678;13.250;2022-11-15T06:36:16;4.00;99.90
7290;DHT22;63176;52.678;13.250;2022-11-15T06:38:43;4.00;99.90
7290;DHT22;63176;52.678;13.250;2022-11-15T06:41:10;3.90;99.90
7290;DHT22;63176;52.678;13.250;2022-11-15T06:43:37;4.00;99.90
7290;DHT22;63176;52.678;13.250;2022-11-15T06:46:04;4.20;99.90
7290;DHT22;63176;52.678;13.250;2022-11-15T06:48:30;4.10;99.90
7290;DHT22;63176;52.678;13.250;2022-11-15T06:51:00;4.00;99.90
7290;DHT22;63176;52.678;13.250;2022-11-15T06:53:27;4.10;99.90
7290;DHT22;63176;52.678;13.250;2022-11-15T06:55:53;4.10;99.90
7290;DHT22;63176;52.678;13.250;2022-11-15T06:58:23;4.40;99.90
7290;DHT22;63176;52.678;13.250;2022-11-15T07:00:48;4.10;99.90
7290;DHT22;63176;52.678;13.250;2022-11-15T07:03:14;4.20;99.90
7290;DHT22;63176;52.678;13.250;2022-11-15T07:05:40;4.20;99.90
7290;DHT22;63176;52.678;13.250;2022-11-15T07:08:05;4.20;99.90
7290;DHT22;63176;52.678;13.250;2022-11-15T07:10:31;4.20;99.90
7290;DHT22;63176;52.678;13.250;2022-11-15T07:12:56;4.30;99.90
7290;DHT22;63176;52.678;13.250;2022-11-15T07:15:24;4.20;99.90
7290;DHT22;63176;52.678;13.250;2022-11-15T07:17:50;4.30;99.90
7290;DHT22;63176;52.678;13.250;2022-11-15T07:20:16;4.30;99.90
7290;DHT22;63176;52.678;13.250;2022-11-15T07:22:42;4.30;99.90
7290;DHT22;63176;52.678;13.250;2022-11-15T07:25:09;4.40;99.90
7290;DHT22;63176;52.678;13.250;2022-11-15T07:27:35;4.40;99.90
7290;DHT22;63176;52.678;13.250;2022-11-15T07:30:00;4.50;99.90
7290;DHT22;63176;52.678;13.250;2022-11-15T07:32:26;4.60;99.90
7290;DHT22;63176;52.678;13.250;2022-11-15T07:34:52;4.60;99.90
7290;DHT22;63176;52.678;13.250;2022-11-15T07:37:18;4.70;99.90
7290;DHT22;63176;52.678;13.250;2022-11-15T07:39:44;4.60;99.90
7290;DHT22;63176;52.678;13.250;2022-11-15T07:42:09;4.60;99.90
7290;DHT22;63176;52.678;13.250;2022-11-15T07:44:53;4.90;99.90
7290;DHT22;63176;52.678;13.250;2022-11-15T07:47:19;4.90;99.90
7290;DHT22;63176;52.678;13.250;2022-11-15T07:49:46;5.00;99.90
7290;DHT22;63176;52.678;13.250;2022-11-15T07:52:12;4.90;99.90
7290;DHT22;63176;52.678;13.250;2022-11-15T07:54:38;5.00;99.90
7290;DHT22;63176;52.678;13.250;2022-11-15T07:57:04;5.10;99.90
7290;DHT22;63176;52.678;13.250;2022-11-15T07:59:30;5.40;99.90
7290;DHT22;63176;52.678;13.250;2022-11-15T08:01:55;5.40;99.90
7290;DHT22;63176;52.678;13.250;2022-11-15T08:04:21;5.70;99.90
7290;DHT22;63176;52.678;13.250;2022-11-15T08:06:47;6.30;99.90
7290;DHT22;63176;52.678;13.250;2022-11-15T08:09:12;6.50;99.90
7290;DHT22;63176;52.678;13.250;2022-11-15T08:11:38;6.30;99.90
7290;DHT22;63176;52.678;13.250;2022-11-15T08:14:04;6.20;99.90
7290;DHT22;63176;52.678;13.250;2022-11-15T08:16:29;6.40;99.90
7290;DHT22;63176;52.678;13.250;2022-11-15T08:18:55;6.30;99.90
7290;DHT22;63176;52.678;13.250;2022-11-15T08:21:21;6.10;99.90
7290;DHT22;63176;52.678;13.250;2022-11-15T08:23:46;6.10;99.90
7290;DHT22;63176;52.678;13.250;2022-11-15T08:26:12;6.20;99.90
7290;DHT22;63176;52.678;13.250;2022-11-15T08:28:38;6.00;99.90
7290;DHT22;63176;52.678;13.250;2022-11-15T08:31:04;6.00;99.90
7290;DHT22;63176;52.678;13.250;2022-11-15T08:33:31;6.10;99.90
7290;DHT22;63176;52.678;13.250;2022-11-15T08:35:59;6.10;99.90
7290;DHT22;63176;52.678;13.250;2022-11-15T08:38:25;6.30;99.90
7290;DHT22;63176;52.678;13.250;2022-11-15T08:40:52;6.40;99.90
7290;DHT22;63176;52.678;13.250;2022-11-15T08:43:19;6.30;99.90
7290;DHT22;63176;52.678;13.250;2022-11-15T08:45:45;6.60;99.90
7290;DHT22;63176;52.678;13.250;2022-11-15T08:48:11;6.40;99.90
7290;DHT22;63176;52.678;13.250;2022-11-15T08:50:36;6.70;99.90
7290;DHT22;63176;52.678;13.250;2022-11-15T08:53:06;6.70;99.90
7290;DHT22;63176;52.678;13.250;2022-11-15T08:55:36;6.60;99.90
7290;DHT22;63176;52.678;13.250;2022-11-15T08:58:02;6.80;99.90
7290;DHT22;63176;52.678;13.250;2022-11-15T09:00:28;6.80;99.90
7290;DHT22;63176;52.678;13.250;2022-11-15T09:02:53;7.00;99.90
7290;DHT22;63176;52.678;13.250;2022-11-15T09:05:19;7.10;99.90
7290;DHT22;63176;52.678;13.250;2022-11-15T09:07:45;7.10;99.90
7290;DHT22;63176;52.678;13.250;2022-11-15T09:10:10;7.10;99.90
7290;DHT22;63176;52.678;13.250;2022-11-15T09:12:36;7.20;99.90
7290;DHT22;63176;52.678;13.250;2022-11-15T09:15:02;7.30;99.90
7290;DHT22;63176;52.678;13.250;2022-11-15T09:17:28;7.40;99.90
7290;DHT22;63176;52.678;13.250;2022-11-15T09:19:53;7.50;99.90
7290;DHT22;63176;52.678;13.250;2022-11-15T09:22:19;7.50;99.90
7290;DHT22;63176;52.678;13.250;2022-11-15T09:24:45;7.50;99.90
7290;DHT22;63176;52.678;13.250;2022-11-15T09:27:10;7.70;99.90
7290;DHT22;63176;52.678;13.250;2022-11-15T09:29:36;7.70;99.90
7290;DHT22;63176;52.678;13.250;2022-11-15T09:32:02;7.70;99.90
7290;DHT22;63176;52.678;13.250;2022-11-15T09:34:27;7.80;99.90
7290;DHT22;63176;52.678;13.250;2022-11-15T09:36:53;7.80;99.90
7290;DHT22;63176;52.678;13.250;2022-11-15T09:39:18;7.90;99.90
7290;DHT22;63176;52.678;13.250;2022-11-15T09:41:55;8.00;99.90
7290;DHT22;63176;52.678;13.250;2022-11-15T09:44:59;8.00;99.90
7290;DHT22;63176;52.678;13.250;2022-11-15T09:50:00;8.10;99.90
7290;DHT22;63176;52.678;13.250;2022-11-15T09:52:27;8.20;99.90
7290;DHT22;63176;52.678;13.250;2022-11-15T09:54:53;8.20;99.90
7290;DHT22;63176;52.678;13.250;2022-11-15T09:57:49;8.20;99.90
7290;DHT22;63176;52.678;13.250;2022-11-15T10:03:11;8.40;99.90
7290;DHT22;63176;52.678;13.250;2022-11-15T10:05:45;8.50;99.90
7290;DHT22;63176;52.678;13.250;2022-11-15T10:08:22;8.50;99.90
7290;DHT22;63176;52.678;13.250;2022-11-15T10:11:15;8.60;99.90
7290;DHT22;63176;52.678;13.250;2022-11-15T10:13:45;8.70;99.90
7290;DHT22;63176;52.678;13.250;2022-11-15T10:24:28;9.00;99.90
7290;DHT22;63176;52.678;13.250;2022-11-15T10:26:55;9.00;99.90
7290;DHT22;63176;52.678;13.250;2022-11-15T10:29:22;9.00;99.90
7290;DHT22;63176;52.678;13.250;2022-11-15T10:31:48;9.10;99.90
7290;DHT22;63176;52.678;13.250;2022-11-15T10:34:23;9.10;99.90
7290;DHT22;63176;52.678;13.250;2022-11-15T10:37:00;9.20;99.90
7290;DHT22;63176;52.678;13.250;2022-11-15T10:39:27;9.20;99.90
7290;DHT22;63176;52.678;13.250;2022-11-15T10:41:54;9.30;99.90
7290;DHT22;63176;52.678;13.250;2022-11-15T10:44:27;9.40;99.90
7290;DHT22;63176;52.678;13.250;2022-11-15T10:49:30;9.50;99.90
7290;DHT22;63176;52.678;13.250;2022-11-15T10:54:43;9.60;99.90
7290;DHT22;63176;52.678;13.250;2022-11-15T10:57:28;9.60;99.90
7290;DHT22;63176;52.678;13.250;2022-11-15T11:00:00;9.70;99.90
7290;DHT22;63176;52.678;13.250;2022-11-15T11:02:36;9.70;99.90
7290;DHT22;63176;52.678;13.250;2022-11-15T11:11:00;9.80;99.90
7290;DHT22;63176;52.678;13.250;2022-11-15T11:13:28;9.80;99.90
7290;DHT22;63176;52.678;13.250;2022-11-15T11:19:02;9.90;99.90
7290;DHT22;63176;52.678;13.250;2022-11-15T11:24:33;10.00;99.90
7290;DHT22;63176;52.678;13.250;2022-11-15T11:32:35;10.30;99.90
7290;DHT22;63176;52.678;13.250;2022-11-15T11:35:15;10.40;99.90
7290;DHT22;63176;52.678;13.250;2022-11-15T11:37:53;10.40;99.90
7290;DHT22;63176;52.678;13.250;2022-11-15T11:43:19;10.40;99.90
7290;DHT22;63176;52.678;13.250;2022-11-15T11:48:46;10.50;99.90
7290;DHT22;63176;52.678;13.250;2022-11-15T11:51:42;10.60;99.90
7290;DHT22;63176;52.678;13.250;2022-11-15T11:54:12;10.60;99.90
7290;DHT22;63176;52.678;13.250;2022-11-15T11:56:41;10.70;99.90
7290;DHT22;63176;52.678;13.250;2022-11-15T11:59:48;10.70;99.90
7290;DHT22;63176;52.678;13.250;2022-11-15T12:04:51;10.80;99.90
7290;DHT22;63176;52.678;13.250;2022-11-15T12:07:27;10.90;99.90
7290;DHT22;63176;52.678;13.250;2022-11-15T12:15:13;11.10;99.90
7290;DHT22;63176;52.678;13.250;2022-11-15T12:17:41;11.10;99.90
7290;DHT22;63176;52.678;13.250;2022-11-15T12:20:25;11.10;99.90
7290;DHT22;63176;52.678;13.250;2022-11-15T12:22:59;11.10;99.90
7290;DHT22;63176;52.678;13.250;2022-11-15T12:28:42;11.20;99.90
7290;DHT22;63176;52.678;13.250;2022-11-15T12:33:47;11.30;99.90
7290;DHT22;63176;52.678;13.250;2022-11-15T12:36:30;11.30;99.90
7290;DHT22;63176;52.678;13.250;2022-11-15T12:41:32;11.30;99.90
7290;DHT22;63176;52.678;13.250;2022-11-15T12:43:58;11.30;99.90
7290;DHT22;63176;52.678;13.250;2022-11-15T13:02:45;11.40;99.90
7290;DHT22;63176;52.678;13.250;2022-11-15T13:17:51;11.40;99.90
7290;DHT22;63176;52.678;13.250;2022-11-15T13:20:23;11.30;99.90
7290;DHT22;63176;52.678;13.250;2022-11-15T13:28:35;11.20;99.90
7290;DHT22;63176;52.678;13.250;2022-11-15T13:33:45;11.20;99.90
7290;DHT22;63176;52.678;13.250;2022-11-15T13:36:20;11.10;99.90
7290;DHT22;63176;52.678;13.250;2022-11-15T13:39:01;11.30;99.90
7290;DHT22;63176;52.678;13.250;2022-11-15T13:41:30;11.40;99.90
7290;DHT22;63176;52.678;13.250;2022-11-15T13:43:57;11.40;99.90
7290;DHT22;63176;52.678;13.250;2022-11-15T13:46:31;11.30;99.90
7290;DHT22;63176;52.678;13.250;2022-11-15T13:49:00;11.20;99.90
7290;DHT22;63176;52.678;13.250;2022-11-15T13:51:46;11.20;99.90
7290;DHT22;63176;52.678;13.250;2022-11-15T13:56:43;11.10;99.90
7290;DHT22;63176;52.678;13.250;2022-11-15T13:59:54;11.10;99.90
7290;DHT22;63176;52.678;13.250;2022-11-15T14:02:03;11.10;99.90
7290;DHT22;63176;52.678;13.250;2022-11-15T14:04:38;11.10;99.90
7290;DHT22;63176;52.678;13.250;2022-11-15T14:07:04;11.10;99.90
7290;DHT22;63176;52.678;13.250;2022-11-15T14:09:39;11.10;99.90
7290;DHT22;63176;52.678;13.250;2022-11-15T14:12:29;11.00;99.90
7290;DHT22;63176;52.678;13.250;2022-11-15T14:14:55;11.00;99.90
7290;DHT22;63176;52.678;13.250;2022-11-15T14:17:34;10.90;99.90
7290;DHT22;63176;52.678;13.250;2022-11-15T14:20:01;10.90;99.90
7290;DHT22;63176;52.678;13.250;2022-11-15T14:22:29;10.90;99.90
7290;DHT22;63176;52.678;13.250;2022-11-15T14:27:32;10.90;99.90
7290;DHT22;63176;52.678;13.250;2022-11-15T14:29:58;10.90;99.90
7290;DHT22;63176;52.678;13.250;2022-11-15T14:32:26;10.90;99.90
7290;DHT22;63176;52.678;13.250;2022-11-15T14:35:00;10.80;99.90
7290;DHT22;63176;52.678;13.250;2022-11-15T14:37:29;10.70;99.90
7290;DHT22;63176;52.678;13.250;2022-11-15T14:39:56;10.70;99.90
7290;DHT22;63176;52.678;13.250;2022-11-15T14:42:23;10.60;99.90
7290;DHT22;63176;52.678;13.250;2022-11-15T14:44:49;10.50;99.90
7290;DHT22;63176;52.678;13.250;2022-11-15T14:47:15;10.40;99.90
7290;DHT22;63176;52.678;13.250;2022-11-15T14:49:41;10.30;99.90
7290;DHT22;63176;52.678;13.250;2022-11-15T14:52:33;10.20;99.90
7290;DHT22;63176;52.678;13.250;2022-11-15T14:55:02;10.10;99.90
7290;DHT22;63176;52.678;13.250;2022-11-15T14:57:29;10.00;99.90
7290;DHT22;63176;52.678;13.250;2022-11-15T14:59:54;9.90;99.90
7290;DHT22;63176;52.678;13.250;2022-11-15T15:02:22;9.80;99.90
7290;DHT22;63176;52.678;13.250;2022-11-15T15:04:49;9.70;99.90
7290;DHT22;63176;52.678;13.250;2022-11-15T15:07:15;9.70;99.90
7290;DHT22;63176;52.678;13.250;2022-11-15T15:09:41;9.60;99.90
7290;DHT22;63176;52.678;13.250;2022-11-15T15:12:21;9.50;99.90
7290;DHT22;63176;52.678;13.250;2022-11-15T15:14:48;9.40;99.90
7290;DHT22;63176;52.678;13.250;2022-11-15T15:17:15;9.30;99.90
7290;DHT22;63176;52.678;13.250;2022-11-15T15:19:41;9.30;99.90
7290;DHT22;63176;52.678;13.250;2022-11-15T15:22:19;9.20;99.90
7290;DHT22;63176;52.678;13.250;2022-11-15T15:24:48;9.10;99.90
7290;DHT22;63176;52.678;13.250;2022-11-15T15:27:14;9.10;99.90
7290;DHT22;63176;52.678;13.250;2022-11-15T15:29:39;9.00;99.90
7290;DHT22;63176;52.678;13.250;2022-11-15T15:32:05;9.00;99.90
7290;DHT22;63176;52.678;13.250;2022-11-15T15:34:31;8.80;99.90
7290;DHT22;63176;52.678;13.250;2022-11-15T15:39:35;8.70;99.90
7290;DHT22;63176;52.678;13.250;2022-11-15T15:42:00;8.70;99.90
7290;DHT22;63176;52.678;13.250;2022-11-15T15:44:26;8.50;99.90
7290;DHT22;63176;52.678;13.250;2022-11-15T15:46:52;8.70;99.90
7290;DHT22;63176;52.678;13.250;2022-11-15T15:49:17;8.70;99.90
7290;DHT22;63176;52.678;13.250;2022-11-15T15:51:43;8.80;99.90
7290;DHT22;63176;52.678;13.250;2022-11-15T15:54:09;8.70;99.90
7290;DHT22;63176;52.678;13.250;2022-11-15T15:56:34;8.70;99.90
7290;DHT22;63176;52.678;13.250;2022-11-15T15:59:00;8.70;99.90
7290;DHT22;63176;52.678;13.250;2022-11-15T16:01:25;8.80;99.90
7290;DHT22;63176;52.678;13.250;2022-11-15T16:03:51;8.50;99.90
7290;DHT22;63176;52.678;13.250;2022-11-15T16:06:34;8.40;99.90
7290;DHT22;63176;52.678;13.250;2022-11-15T16:09:01;8.40;99.90
7290;DHT22;63176;52.678;13.250;2022-11-15T16:11:27;8.30;99.90
7290;DHT22;63176;52.678;13.250;2022-11-15T16:13:52;8.30;99.90
7290;DHT22;63176;52.678;13.250;2022-11-15T16:16:20;8.20;99.90
7290;DHT22;63176;52.678;13.250;2022-11-15T16:18:46;8.20;99.90
7290;DHT22;63176;52.678;13.250;2022-11-15T16:21:12;8.10;99.90
7290;DHT22;63176;52.678;13.250;2022-11-15T16:23:38;8.10;99.90
7290;DHT22;63176;52.678;13.250;2022-11-15T16:26:21;8.10;99.90
7290;DHT22;63176;52.678;13.250;2022-11-15T16:28:47;8.10;99.90
7290;DHT22;63176;52.678;13.250;2022-11-15T16:31:13;8.10;99.90
7290;DHT22;63176;52.678;13.250;2022-11-15T16:33:39;8.10;99.90
7290;DHT22;63176;52.678;13.250;2022-11-15T16:36:18;8.10;99.90
7290;DHT22;63176;52.678;13.250;2022-11-15T16:38:44;8.10;99.90
7290;DHT22;63176;52.678;13.250;2022-11-15T16:41:10;8.00;99.90
7290;DHT22;63176;52.678;13.250;2022-11-15T16:43:36;8.00;99.90
7290;DHT22;63176;52.678;13.250;2022-11-15T16:46:34;8.10;99.90
7290;DHT22;63176;52.678;13.250;2022-11-15T16:49:00;8.00;99.90
7290;DHT22;63176;52.678;13.250;2022-11-15T16:51:25;7.90;99.90
7290;DHT22;63176;52.678;13.250;2022-11-15T16:53:51;8.00;99.90
7290;DHT22;63176;52.678;13.250;2022-11-15T16:56:23;7.90;99.90
7290;DHT22;63176;52.678;13.250;2022-11-15T16:58:50;8.00;99.90
7290;DHT22;63176;52.678;13.250;2022-11-15T17:01:18;8.00;99.90
7290;DHT22;63176;52.678;13.250;2022-11-15T17:03:44;8.00;99.90
7290;DHT22;63176;52.678;13.250;2022-11-15T17:06:10;8.00;99.90
7290;DHT22;63176;52.678;13.250;2022-11-15T17:08:37;8.00;99.90
7290;DHT22;63176;52.678;13.250;2022-11-15T17:11:06;8.00;99.90
7290;DHT22;63176;52.678;13.250;2022-11-15T17:13:32;8.00;99.90
7290;DHT22;63176;52.678;13.250;2022-11-15T17:16:14;8.00;99.90
7290;DHT22;63176;52.678;13.250;2022-11-15T17:18:40;7.90;99.90
7290;DHT22;63176;52.678;13.250;2022-11-15T17:21:11;7.90;99.90
7290;DHT22;63176;52.678;13.250;2022-11-15T17:23:37;7.80;99.90
7290;DHT22;63176;52.678;13.250;2022-11-15T17:26:04;7.80;99.90
7290;DHT22;63176;52.678;13.250;2022-11-15T17:28:31;7.70;99.90
7290;DHT22;63176;52.678;13.250;2022-11-15T17:30:57;7.80;99.90
7290;DHT22;63176;52.678;13.250;2022-11-15T17:33:23;7.90;99.90
7290;DHT22;63176;52.678;13.250;2022-11-15T17:35:59;7.80;99.90
7290;DHT22;63176;52.678;13.250;2022-11-15T17:38:26;7.80;99.90
7290;DHT22;63176;52.678;13.250;2022-11-15T17:41:03;7.70;99.90
7290;DHT22;63176;52.678;13.250;2022-11-15T17:43:30;7.70;99.90
7290;DHT22;63176;52.678;13.250;2022-11-15T17:45:57;7.60;99.90
7290;DHT22;63176;52.678;13.250;2022-11-15T17:48:22;7.60;99.90
7290;DHT22;63176;52.678;13.250;2022-11-15T17:51:08;7.60;99.90
7290;DHT22;63176;52.678;13.250;2022-11-15T17:53:37;7.50;99.90
7290;DHT22;63176;52.678;13.250;2022-11-15T17:56:16;7.40;99.90
7290;DHT22;63176;52.678;13.250;2022-11-15T17:58:47;7.50;99.90
7290;DHT22;63176;52.678;13.250;2022-11-15T18:01:20;7.40;99.90